sensor_id;sensor_type;location;lat;lon;timestamp;temperature;humidity
52869;DHT22;39100;53.480;6.158;2023-03-26T00:00:52;7.30;99.90
52869;DHT22;39100;53.480;6.158;2023-03-26T00:03:20;7.20;99.90
52869;DHT22;39100;53.480;6.158;2023-03-26T00:05:46;7.10;99.90
52869;DHT22;39100;53.480;6.158;2023-03-26T00:08:12;7.20;99.90
52869;DHT22;39100;53.480;6.158;2023-03-26T00:10:39;7.20;99.90
52869;DHT22;39100;53.480;6.158;2023-03-26T00:13:05;7.20;99.90
52869;DHT22;39100;53.480;6.158;2023-03-26T00:15:31;7.10;99.90
52869;DHT22;39100;53.480;6.158;2023-03-26T00:17:57;7.00;99.90
52869;DHT22;39100;53.480;6.158;2023-03-26T00:20:22;7.10;99.90
52869;DHT22;39100;53.480;6.158;2023-03-26T00:22:48;7.00;99.90
52869;DHT22;39100;53.480;6.158;2023-03-26T00:25:15;7.00;99.90
52869;DHT22;39100;53.480;6.158;2023-03-26T00:27:40;7.00;99.90
52869;DHT22;39100;53.480;6.158;2023-03-26T00:30:06;7.00;99.90
52869;DHT22;39100;53.480;6.158;2023-03-26T00:32:32;6.90;99.90
52869;DHT22;39100;53.480;6.158;2023-03-26T00:34:57;6.80;99.90
52869;DHT22;39100;53.480;6.158;2023-03-26T00:37:23;6.80;99.90
52869;DHT22;39100;53.480;6.158;2023-03-26T00:39:52;6.80;99.90
52869;DHT22;39100;53.480;6.158;2023-03-26T00:42:17;6.70;99.90
52869;DHT22;39100;53.480;6.158;2023-03-26T00:44:43;6.80;99.90
52869;DHT22;39100;53.480;6.158;2023-03-26T00:47:08;6.80;99.90
52869;DHT22;39100;53.480;6.158;2023-03-26T00:49:34;6.80;99.90
52869;DHT22;39100;53.480;6.158;2023-03-26T00:51:59;6.90;99.90
52869;DHT22;39100;53.480;6.158;2023-03-26T00:54:27;6.80;99.90
52869;DHT22;39100;53.480;6.158;2023-03-26T00:56:52;6.80;99.90
52869;DHT22;39100;53.480;6.158;2023-03-26T00:59:21;6.80;99.90
52869;DHT22;39100;53.480;6.158;2023-03-26T01:01:47;6.80;99.90
52869;DHT22;39100;53.480;6.158;2023-03-26T01:04:28;6.80;99.90
52869;DHT22;39100;53.480;6.158;2023-03-26T01:06:55;6.70;99.90
52869;DHT22;39100;53.480;6.158;2023-03-26T01:09:26;6.70;99.90
52869;DHT22;39100;53.480;6.158;2023-03-26T01:11:54;6.70;99.90
52869;DHT22;39100;53.480;6.158;2023-03-26T01:14:23;6.70;99.90
52869;DHT22;39100;53.480;6.158;2023-03-26T01:16:51;6.70;99.90
52869;DHT22;39100;53.480;6.158;2023-03-26T01:19:22;6.70;99.90
52869;DHT22;39100;53.480;6.158;2023-03-26T01:21:50;6.70;99.90
52869;DHT22;39100;53.480;6.158;2023-03-26T01:24:15;6.70;99.90
52869;DHT22;39100;53.480;6.158;2023-03-26T01:36:52;6.90;99.90
52869;DHT22;39100;53.480;6.158;2023-03-26T01:41:46;7.00;99.90
52869;DHT22;39100;53.480;6.158;2023-03-26T01:46:38;7.00;99.90
52869;DHT22;39100;53.480;6.158;2023-03-26T01:49:04;7.10;99.90
52869;DHT22;39100;53.480;6.158;2023-03-26T01:51:31;7.20;99.90
52869;DHT22;39100;53.480;6.158;2023-03-26T01:53:57;7.10;99.90
52869;DHT22;39100;53.480;6.158;2023-03-26T01:56:35;7.10;99.90
52869;DHT22;39100;53.480;6.158;2023-03-26T02:01:40;7.20;99.90
52869;DHT22;39100;53.480;6.158;2023-03-26T02:04:14;7.30;99.90
52869;DHT22;39100;53.480;6.158;2023-03-26T02:09:10;7.20;99.90
52869;DHT22;39100;53.480;6.158;2023-03-26T02:11:37;7.20;99.90
52869;DHT22;39100;53.480;6.158;2023-03-26T02:14:04;7.20;99.90
52869;DHT22;39100;53.480;6.158;2023-03-26T02:16:30;7.20;99.90
52869;DHT22;39100;53.480;6.158;2023-03-26T02:18:55;7.10;99.90
52869;DHT22;39100;53.480;6.158;2023-03-26T02:21:23;7.20;99.90
52869;DHT22;39100;53.480;6.158;2023-03-26T02:23:51;7.10;99.90
52869;DHT22;39100;53.480;6.158;2023-03-26T02:26:22;7.10;99.90
52869;DHT22;39100;53.480;6.158;2023-03-26T02:28:47;7.70;99.90
52869;DHT22;39100;53.480;6.158;2023-03-26T02:31:13;7.10;99.90
52869;DHT22;39100;53.480;6.158;2023-03-26T02:33:40;7.10;99.90
52869;DHT22;39100;53.480;6.158;2023-03-26T02:36:06;7.10;99.90
52869;DHT22;39100;53.480;6.158;2023-03-26T02:38:32;7.00;99.90
52869;DHT22;39100;53.480;6.158;2023-03-26T02:41:02;7.00;99.90
52869;DHT22;39100;53.480;6.158;2023-03-26T02:43:28;7.00;99.90
52869;DHT22;39100;53.480;6.158;2023-03-26T02:45:54;7.00;99.90
52869;DHT22;39100;53.480;6.158;2023-03-26T02:48:19;6.90;99.90
52869;DHT22;39100;53.480;6.158;2023-03-26T02:50:45;7.00;99.90
52869;DHT22;39100;53.480;6.158;2023-03-26T02:53:17;6.90;99.90
52869;DHT22;39100;53.480;6.158;2023-03-26T02:55:43;6.90;99.90
52869;DHT22;39100;53.480;6.158;2023-03-26T02:58:08;6.80;99.90
52869;DHT22;39100;53.480;6.158;2023-03-26T03:00:35;6.80;99.90
52869;DHT22;39100;53.480;6.158;2023-03-26T03:03:00;6.80;99.90
52869;DHT22;39100;53.480;6.158;2023-03-26T03:05:29;6.70;99.90
52869;DHT22;39100;53.480;6.158;2023-03-26T03:07:56;6.70;99.90
52869;DHT22;39100;53.480;6.158;2023-03-26T03:10:23;7.30;99.90
52869;DHT22;39100;53.480;6.158;2023-03-26T03:12:48;6.70;99.90
52869;DHT22;39100;53.480;6.158;2023-03-26T03:15:14;6.70;99.90
52869;DHT22;39100;53.480;6.158;2023-03-26T03:17:39;6.70;99.90
52869;DHT22;39100;53.480;6.158;2023-03-26T03:20:06;6.70;99.90
52869;DHT22;39100;53.480;6.158;2023-03-26T03:22:34;6.70;99.90
52869;DHT22;39100;53.480;6.158;2023-03-26T03:24:59;6.70;99.90
52869;DHT22;39100;53.480;6.158;2023-03-26T03:27:25;6.70;99.90
52869;DHT22;39100;53.480;6.158;2023-03-26T03:29:51;6.60;99.90
52869;DHT22;39100;53.480;6.158;2023-03-26T03:32:23;6.60;99.90
52869;DHT22;39100;53.480;6.158;2023-03-26T03:34:49;6.60;99.90
52869;DHT22;39100;53.480;6.158;2023-03-26T03:37:15;6.60;99.90
52869;DHT22;39100;53.480;6.158;2023-03-26T03:39:41;6.60;99.90
52869;DHT22;39100;53.480;6.158;2023-03-26T03:42:06;6.90;99.90
52869;DHT22;39100;53.480;6.158;2023-03-26T03:44:32;6.60;99.90
52869;DHT22;39100;53.480;6.158;2023-03-26T03:46:57;6.50;99.90
52869;DHT22;39100;53.480;6.158;2023-03-26T03:49:23;6.50;99.90
52869;DHT22;39100;53.480;6.158;2023-03-26T03:51:48;6.50;99.90
52869;DHT22;39100;53.480;6.158;2023-03-26T03:54:14;6.50;99.90
52869;DHT22;39100;53.480;6.158;2023-03-26T03:56:39;6.50;99.90
52869;DHT22;39100;53.480;6.158;2023-03-26T03:59:05;6.50;99.90
52869;DHT22;39100;53.480;6.158;2023-03-26T04:01:30;6.50;99.90
52869;DHT22;39100;53.480;6.158;2023-03-26T04:03:56;6.50;99.90
52869;DHT22;39100;53.480;6.158;2023-03-26T04:06:22;6.50;99.90
52869;DHT22;39100;53.480;6.158;2023-03-26T04:08:52;6.50;99.90
52869;DHT22;39100;53.480;6.158;2023-03-26T04:11:17;6.50;99.90
52869;DHT22;39100;53.480;6.158;2023-03-26T04:13:43;6.40;99.90
52869;DHT22;39100;53.480;6.158;2023-03-26T04:16:09;6.40;99.90
52869;DHT22;39100;53.480;6.158;2023-03-26T04:18:35;6.40;99.90
52869;DHT22;39100;53.480;6.158;2023-03-26T04:21:02;6.40;99.90
52869;DHT22;39100;53.480;6.158;2023-03-26T04:23:28;6.50;99.90
52869;DHT22;39100;53.480;6.158;2023-03-26T04:25:53;6.40;99.90
52869;DHT22;39100;53.480;6.158;2023-03-26T04:28:27;6.30;99.90
52869;DHT22;39100;53.480;6.158;2023-03-26T04:30:54;6.30;99.90
52869;DHT22;39100;53.480;6.158;2023-03-26T04:33:21;6.30;99.90
52869;DHT22;39100;53.480;6.158;2023-03-26T04:35:49;6.30;99.90
52869;DHT22;39100;53.480;6.158;2023-03-26T04:38:15;6.30;99.90
52869;DHT22;39100;53.480;6.158;2023-03-26T04:40:43;6.30;99.90
52869;DHT22;39100;53.480;6.158;2023-03-26T04:43:12;6.30;99.90
52869;DHT22;39100;53.480;6.158;2023-03-26T04:45:38;6.30;99.90
52869;DHT22;39100;53.480;6.158;2023-03-26T04:48:03;6.30;99.90
52869;DHT22;39100;53.480;6.158;2023-03-26T04:50:31;6.30;99.90
52869;DHT22;39100;53.480;6.158;2023-03-26T04:52:57;6.30;99.90
52869;DHT22;39100;53.480;6.158;2023-03-26T04:55:23;6.30;99.90
52869;DHT22;39100;53.480;6.158;2023-03-26T04:57:51;6.30;99.90
52869;DHT22;39100;53.480;6.158;2023-03-26T05:00:17;6.30;99.90
52869;DHT22;39100;53.480;6.158;2023-03-26T05:02:44;6.30;99.90
52869;DHT22;39100;53.480;6.158;2023-03-26T05:05:13;6.20;99.90
52869;DHT22;39100;53.480;6.158;2023-03-26T05:07:39;6.20;99.90
52869;DHT22;39100;53.480;6.158;2023-03-26T05:10:06;6.10;99.90
52869;DHT22;39100;53.480;6.158;2023-03-26T05:12:32;6.00;99.90
52869;DHT22;39100;53.480;6.158;2023-03-26T05:14:58;6.00;99.90
52869;DHT22;39100;53.480;6.158;2023-03-26T05:17:24;5.90;99.90
52869;DHT22;39100;53.480;6.158;2023-03-26T05:19:50;5.90;99.90
52869;DHT22;39100;53.480;6.158;2023-03-26T05:22:16;5.80;99.90
52869;DHT22;39100;53.480;6.158;2023-03-26T05:24:42;5.70;99.90
52869;DHT22;39100;53.480;6.158;2023-03-26T05:27:09;5.70;99.90
52869;DHT22;39100;53.480;6.158;2023-03-26T05:29:37;5.60;99.90
52869;DHT22;39100;53.480;6.158;2023-03-26T05:32:02;5.60;99.90
52869;DHT22;39100;53.480;6.158;2023-03-26T05:34:28;5.50;99.90
52869;DHT22;39100;53.480;6.158;2023-03-26T05:36:54;5.50;99.90
52869;DHT22;39100;53.480;6.158;2023-03-26T05:39:19;5.40;99.90
52869;DHT22;39100;53.480;6.158;2023-03-26T05:41:49;5.40;99.90
52869;DHT22;39100;53.480;6.158;2023-03-26T05:44:15;5.40;99.90
52869;DHT22;39100;53.480;6.158;2023-03-26T05:46:40;5.30;99.90
52869;DHT22;39100;53.480;6.158;2023-03-26T05:49:06;5.30;99.90
52869;DHT22;39100;53.480;6.158;2023-03-26T05:51:31;5.30;99.90
52869;DHT22;39100;53.480;6.158;2023-03-26T05:53:57;5.20;99.90
52869;DHT22;39100;53.480;6.158;2023-03-26T05:56:22;5.20;99.90
52869;DHT22;39100;53.480;6.158;2023-03-26T05:58:48;5.20;99.90
52869;DHT22;39100;53.480;6.158;2023-03-26T06:01:13;5.20;99.90
52869;DHT22;39100;53.480;6.158;2023-03-26T06:03:41;5.20;99.90
52869;DHT22;39100;53.480;6.158;2023-03-26T06:06:09;5.30;99.90
52869;DHT22;39100;53.480;6.158;2023-03-26T06:08:40;5.30;99.90
52869;DHT22;39100;53.480;6.158;2023-03-26T06:11:06;5.50;99.90
52869;DHT22;39100;53.480;6.158;2023-03-26T06:13:32;5.60;99.90
52869;DHT22;39100;53.480;6.158;2023-03-26T06:15:58;5.60;99.90
52869;DHT22;39100;53.480;6.158;2023-03-26T06:18:23;5.70;99.90
52869;DHT22;39100;53.480;6.158;2023-03-26T06:20:50;5.80;99.90
52869;DHT22;39100;53.480;6.158;2023-03-26T06:23:16;5.90;99.90
52869;DHT22;39100;53.480;6.158;2023-03-26T06:25:42;6.00;99.90
52869;DHT22;39100;53.480;6.158;2023-03-26T06:28:10;6.40;99.90
52869;DHT22;39100;53.480;6.158;2023-03-26T06:30:36;6.20;99.90
52869;DHT22;39100;53.480;6.158;2023-03-26T06:33:02;6.30;99.90
52869;DHT22;39100;53.480;6.158;2023-03-26T06:35:27;6.30;99.90
52869;DHT22;39100;53.480;6.158;2023-03-26T06:37:54;6.40;99.90
52869;DHT22;39100;53.480;6.158;2023-03-26T06:40:20;7.20;99.90
52869;DHT22;39100;53.480;6.158;2023-03-26T06:42:45;6.70;99.90
52869;DHT22;39100;53.480;6.158;2023-03-26T06:45:11;6.80;99.90
52869;DHT22;39100;53.480;6.158;2023-03-26T06:47:36;6.90;99.90
52869;DHT22;39100;53.480;6.158;2023-03-26T06:50:02;6.90;99.90
52869;DHT22;39100;53.480;6.158;2023-03-26T06:52:27;7.50;99.90
52869;DHT22;39100;53.480;6.158;2023-03-26T06:54:53;7.00;99.90
52869;DHT22;39100;53.480;6.158;2023-03-26T06:57:18;7.10;99.90
52869;DHT22;39100;53.480;6.158;2023-03-26T06:59:44;7.10;99.90
52869;DHT22;39100;53.480;6.158;2023-03-26T07:02:10;7.20;99.90
52869;DHT22;39100;53.480;6.158;2023-03-26T07:04:36;7.30;99.90
52869;DHT22;39100;53.480;6.158;2023-03-26T07:07:01;7.40;99.90
52869;DHT22;39100;53.480;6.158;2023-03-26T07:09:27;7.40;99.90
52869;DHT22;39100;53.480;6.158;2023-03-26T07:11:55;7.50;99.90
52869;DHT22;39100;53.480;6.158;2023-03-26T07:14:20;7.60;99.90
52869;DHT22;39100;53.480;6.158;2023-03-26T07:16:46;7.70;99.90
52869;DHT22;39100;53.480;6.158;2023-03-26T07:19:11;7.90;99.90
52869;DHT22;39100;53.480;6.158;2023-03-26T07:21:37;9.00;99.90
52869;DHT22;39100;53.480;6.158;2023-03-26T07:24:02;8.50;99.90
52869;DHT22;39100;53.480;6.158;2023-03-26T07:26:33;8.60;99.90
52869;DHT22;39100;53.480;6.158;2023-03-26T07:32:00;8.80;99.90
52869;DHT22;39100;53.480;6.158;2023-03-26T07:34:47;8.90;99.90
52869;DHT22;39100;53.480;6.158;2023-03-26T07:37:29;8.90;99.90
52869;DHT22;39100;53.480;6.158;2023-03-26T07:39:58;8.90;99.90
52869;DHT22;39100;53.480;6.158;2023-03-26T07:47:22;8.80;99.90
52869;DHT22;39100;53.480;6.158;2023-03-26T07:49:51;8.60;99.90
52869;DHT22;39100;53.480;6.158;2023-03-26T07:52:17;8.60;99.90
52869;DHT22;39100;53.480;6.158;2023-03-26T07:54:43;8.70;99.90
52869;DHT22;39100;53.480;6.158;2023-03-26T07:57:12;8.90;99.90
52869;DHT22;39100;53.480;6.158;2023-03-26T07:59:43;8.80;99.90
52869;DHT22;39100;53.480;6.158;2023-03-26T08:04:47;9.10;99.90
52869;DHT22;39100;53.480;6.158;2023-03-26T08:07:27;9.50;99.90
52869;DHT22;39100;53.480;6.158;2023-03-26T08:12:26;10.00;99.90
52869;DHT22;39100;53.480;6.158;2023-03-26T08:17:41;9.90;99.90
52869;DHT22;39100;53.480;6.158;2023-03-26T08:20:19;9.80;99.90
52869;DHT22;39100;53.480;6.158;2023-03-26T08:22:48;9.70;99.90
52869;DHT22;39100;53.480;6.158;2023-03-26T08:25:21;9.70;99.90
52869;DHT22;39100;53.480;6.158;2023-03-26T08:30:33;9.80;99.90
52869;DHT22;39100;53.480;6.158;2023-03-26T08:35:28;10.10;99.90
52869;DHT22;39100;53.480;6.158;2023-03-26T08:37:54;10.20;99.90
52869;DHT22;39100;53.480;6.158;2023-03-26T08:41:04;10.10;99.90
52869;DHT22;39100;53.480;6.158;2023-03-26T08:46:06;9.90;99.90
52869;DHT22;39100;53.480;6.158;2023-03-26T08:53:59;10.00;99.90
52869;DHT22;39100;53.480;6.158;2023-03-26T08:59:13;10.10;99.90
52869;DHT22;39100;53.480;6.158;2023-03-26T09:07:00;10.30;99.90
52869;DHT22;39100;53.480;6.158;2023-03-26T09:12:12;10.30;99.90
52869;DHT22;39100;53.480;6.158;2023-03-26T09:27:54;10.80;99.90
52869;DHT22;39100;53.480;6.158;2023-03-26T09:30:34;11.30;99.90
52869;DHT22;39100;53.480;6.158;2023-03-26T09:33:03;11.80;99.90
52869;DHT22;39100;53.480;6.158;2023-03-26T09:35:50;12.20;99.90
52869;DHT22;39100;53.480;6.158;2023-03-26T09:38:23;12.40;99.90
52869;DHT22;39100;53.480;6.158;2023-03-26T09:40:58;12.60;99.90
52869;DHT22;39100;53.480;6.158;2023-03-26T09:48:52;12.00;99.90
52869;DHT22;39100;53.480;6.158;2023-03-26T09:54:37;11.50;99.90
52869;DHT22;39100;53.480;6.158;2023-03-26T10:12:30;11.70;99.90
52869;DHT22;39100;53.480;6.158;2023-03-26T10:22:47;11.20;99.90
52869;DHT22;39100;53.480;6.158;2023-03-26T10:28:20;11.10;99.90
52869;DHT22;39100;53.480;6.158;2023-03-26T10:31:05;11.00;99.90
52869;DHT22;39100;53.480;6.158;2023-03-26T10:33:53;10.90;99.90
52869;DHT22;39100;53.480;6.158;2023-03-26T10:36:27;10.80;99.90
52869;DHT22;39100;53.480;6.158;2023-03-26T10:44:20;10.60;99.90
52869;DHT22;39100;53.480;6.158;2023-03-26T10:56:51;10.50;99.90
52869;DHT22;39100;53.480;6.158;2023-03-26T10:59:18;11.00;99.90
52869;DHT22;39100;53.480;6.158;2023-03-26T11:06:48;10.60;99.90
52869;DHT22;39100;53.480;6.158;2023-03-26T11:12:02;10.80;99.90
52869;DHT22;39100;53.480;6.158;2023-03-26T11:14:33;10.90;99.90
52869;DHT22;39100;53.480;6.158;2023-03-26T11:17:03;10.90;99.90
52869;DHT22;39100;53.480;6.158;2023-03-26T11:24:49;10.90;99.90
52869;DHT22;39100;53.480;6.158;2023-03-26T11:30:41;10.80;99.90
52869;DHT22;39100;53.480;6.158;2023-03-26T11:32:49;10.80;99.90
52869;DHT22;39100;53.480;6.158;2023-03-26T11:35:17;11.10;99.90
52869;DHT22;39100;53.480;6.158;2023-03-26T11:37:49;12.00;99.90
52869;DHT22;39100;53.480;6.158;2023-03-26T11:40:30;11.20;99.90
52869;DHT22;39100;53.480;6.158;2023-03-26T11:43:01;11.20;99.90
52869;DHT22;39100;53.480;6.158;2023-03-26T11:45:31;11.20;99.90
52869;DHT22;39100;53.480;6.158;2023-03-26T11:48:02;11.30;99.90
52869;DHT22;39100;53.480;6.158;2023-03-26T11:50:32;11.40;99.90
52869;DHT22;39100;53.480;6.158;2023-03-26T11:53:18;11.50;99.90
52869;DHT22;39100;53.480;6.158;2023-03-26T11:55:46;11.60;99.90
52869;DHT22;39100;53.480;6.158;2023-03-26T11:58:24;11.60;99.90
52869;DHT22;39100;53.480;6.158;2023-03-26T12:00:52;11.80;99.90
52869;DHT22;39100;53.480;6.158;2023-03-26T12:03:18;11.80;99.90
52869;DHT22;39100;53.480;6.158;2023-03-26T12:05:50;11.80;99.90
52869;DHT22;39100;53.480;6.158;2023-03-26T12:08:18;11.70;99.90
52869;DHT22;39100;53.480;6.158;2023-03-26T12:10:45;11.50;99.90
52869;DHT22;39100;53.480;6.158;2023-03-26T12:16:06;11.80;99.90
52869;DHT22;39100;53.480;6.158;2023-03-26T12:18:33;12.00;99.90
52869;DHT22;39100;53.480;6.158;2023-03-26T12:21:06;11.80;99.90
52869;DHT22;39100;53.480;6.158;2023-03-26T12:23:33;12.00;99.90
52869;DHT22;39100;53.480;6.158;2023-03-26T12:26:13;12.10;99.90
52869;DHT22;39100;53.480;6.158;2023-03-26T12:28:43;12.20;99.90
52869;DHT22;39100;53.480;6.158;2023-03-26T12:31:09;12.40;99.90
52869;DHT22;39100;53.480;6.158;2023-03-26T12:33:35;12.20;99.90
52869;DHT22;39100;53.480;6.158;2023-03-26T12:39:01;11.40;99.90
52869;DHT22;39100;53.480;6.158;2023-03-26T12:41:44;11.40;99.90
52869;DHT22;39100;53.480;6.158;2023-03-26T12:44:20;11.30;99.90
52869;DHT22;39100;53.480;6.158;2023-03-26T12:46:48;11.30;99.90
52869;DHT22;39100;53.480;6.158;2023-03-26T12:49:14;12.30;99.90
52869;DHT22;39100;53.480;6.158;2023-03-26T12:59:23;16.10;99.90
52869;DHT22;39100;53.480;6.158;2023-03-26T13:01:53;15.60;99.90
52869;DHT22;39100;53.480;6.158;2023-03-26T13:04:28;15.10;99.90
52869;DHT22;39100;53.480;6.158;2023-03-26T13:07:02;14.30;99.90
52869;DHT22;39100;53.480;6.158;2023-03-26T13:12:16;14.80;99.90
52869;DHT22;39100;53.480;6.158;2023-03-26T13:14:50;15.30;99.90
52869;DHT22;39100;53.480;6.158;2023-03-26T13:17:29;15.30;99.90
52869;DHT22;39100;53.480;6.158;2023-03-26T13:20:00;15.50;99.90
52869;DHT22;39100;53.480;6.158;2023-03-26T13:30:00;14.40;99.90
52869;DHT22;39100;53.480;6.158;2023-03-26T13:32:48;14.60;99.90
52869;DHT22;39100;53.480;6.158;2023-03-26T13:37:52;16.80;99.90
52869;DHT22;39100;53.480;6.158;2023-03-26T13:45:37;18.60;99.90
52869;DHT22;39100;53.480;6.158;2023-03-26T13:48:09;18.00;99.90
52869;DHT22;39100;53.480;6.158;2023-03-26T13:50:37;17.50;99.90
52869;DHT22;39100;53.480;6.158;2023-03-26T13:53:16;17.40;99.90
52869;DHT22;39100;53.480;6.158;2023-03-26T13:55:43;16.50;99.90
52869;DHT22;39100;53.480;6.158;2023-03-26T13:58:11;16.00;99.90
52869;DHT22;39100;53.480;6.158;2023-03-26T14:03:12;14.70;99.90
52869;DHT22;39100;53.480;6.158;2023-03-26T14:05:47;14.20;99.90
52869;DHT22;39100;53.480;6.158;2023-03-26T14:08:16;14.00;99.90
52869;DHT22;39100;53.480;6.158;2023-03-26T14:10:44;14.00;99.90
52869;DHT22;39100;53.480;6.158;2023-03-26T14:13:27;13.90;99.90
52869;DHT22;39100;53.480;6.158;2023-03-26T14:16:02;13.80;99.90
52869;DHT22;39100;53.480;6.158;2023-03-26T14:21:04;13.90;99.90
52869;DHT22;39100;53.480;6.158;2023-03-26T14:31:44;13.80;99.90
52869;DHT22;39100;53.480;6.158;2023-03-26T14:36:56;13.20;99.90
52869;DHT22;39100;53.480;6.158;2023-03-26T14:47:27;13.00;99.90
52869;DHT22;39100;53.480;6.158;2023-03-26T14:52:41;13.00;99.90
52869;DHT22;39100;53.480;6.158;2023-03-26T14:57:49;12.80;99.90
52869;DHT22;39100;53.480;6.158;2023-03-26T15:00:29;13.00;99.90
52869;DHT22;39100;53.480;6.158;2023-03-26T15:13:44;11.80;99.90
52869;DHT22;39100;53.480;6.158;2023-03-26T15:19:08;11.40;99.90
52869;DHT22;39100;53.480;6.158;2023-03-26T15:22:01;11.40;99.90
52869;DHT22;39100;53.480;6.158;2023-03-26T15:30:58;11.00;99.90
52869;DHT22;39100;53.480;6.158;2023-03-26T15:43:19;10.50;99.90
52869;DHT22;39100;53.480;6.158;2023-03-26T15:51:15;10.20;99.90
52869;DHT22;39100;53.480;6.158;2023-03-26T15:53:55;10.60;99.90
52869;DHT22;39100;53.480;6.158;2023-03-26T15:56:28;10.20;99.90
52869;DHT22;39100;53.480;6.158;2023-03-26T15:59:16;10.20;99.90
52869;DHT22;39100;53.480;6.158;2023-03-26T16:06:59;10.00;99.90
52869;DHT22;39100;53.480;6.158;2023-03-26T16:09:31;9.80;99.90
52869;DHT22;39100;53.480;6.158;2023-03-26T16:12:22;9.90;99.90
52869;DHT22;39100;53.480;6.158;2023-03-26T16:18:03;9.90;99.90
52869;DHT22;39100;53.480;6.158;2023-03-26T16:20:24;9.70;99.90
52869;DHT22;39100;53.480;6.158;2023-03-26T16:23:00;9.70;99.90
52869;DHT22;39100;53.480;6.158;2023-03-26T16:25:31;9.60;99.90
52869;DHT22;39100;53.480;6.158;2023-03-26T16:30:35;9.80;99.90
52869;DHT22;39100;53.480;6.158;2023-03-26T16:33:08;9.70;99.90
52869;DHT22;39100;53.480;6.158;2023-03-26T16:35:44;9.70;99.90
52869;DHT22;39100;53.480;6.158;2023-03-26T16:38:14;9.60;99.90
52869;DHT22;39100;53.480;6.158;2023-03-26T16:40:57;9.50;99.90
52869;DHT22;39100;53.480;6.158;2023-03-26T16:51:15;9.10;99.90
52869;DHT22;39100;53.480;6.158;2023-03-26T16:56:37;8.80;99.90
52869;DHT22;39100;53.480;6.158;2023-03-26T16:59:07;8.60;99.90
52869;DHT22;39100;53.480;6.158;2023-03-26T17:01:46;8.50;99.90
52869;DHT22;39100;53.480;6.158;2023-03-26T17:04:15;8.40;99.90
52869;DHT22;39100;53.480;6.158;2023-03-26T17:17:15;7.90;99.90
52869;DHT22;39100;53.480;6.158;2023-03-26T17:19:46;7.80;99.90
52869;DHT22;39100;53.480;6.158;2023-03-26T17:24:45;7.80;99.90
52869;DHT22;39100;53.480;6.158;2023-03-26T17:27:26;8.40;99.90
52869;DHT22;39100;53.480;6.158;2023-03-26T17:35:44;7.60;99.90
52869;DHT22;39100;53.480;6.158;2023-03-26T17:43:10;7.40;99.90
52869;DHT22;39100;53.480;6.158;2023-03-26T17:45:37;7.30;99.90
52869;DHT22;39100;53.480;6.158;2023-03-26T17:48:17;7.20;99.90
52869;DHT22;39100;53.480;6.158;2023-03-26T17:50:46;7.30;99.90
52869;DHT22;39100;53.480;6.158;2023-03-26T17:53:17;8.60;99.90
52869;DHT22;39100;53.480;6.158;2023-03-26T17:55:44;7.10;99.90
52869;DHT22;39100;53.480;6.158;2023-03-26T17:58:22;7.40;99.90
52869;DHT22;39100;53.480;6.158;2023-03-26T18:00:51;7.20;99.90
52869;DHT22;39100;53.480;6.158;2023-03-26T18:03:28;7.30;99.90
52869;DHT22;39100;53.480;6.158;2023-03-26T18:06:03;7.30;99.90
52869;DHT22;39100;53.480;6.158;2023-03-26T18:08:51;7.30;99.90
52869;DHT22;39100;53.480;6.158;2023-03-26T18:13:55;7.20;99.90
52869;DHT22;39100;53.480;6.158;2023-03-26T18:16:36;7.10;99.90
52869;DHT22;39100;53.480;6.158;2023-03-26T18:19:03;7.00;99.90
52869;DHT22;39100;53.480;6.158;2023-03-26T18:21:39;7.00;99.90
52869;DHT22;39100;53.480;6.158;2023-03-26T18:24:05;7.00;99.90
52869;DHT22;39100;53.480;6.158;2023-03-26T18:26:32;6.90;99.90
52869;DHT22;39100;53.480;6.158;2023-03-26T18:31:39;6.80;99.90
52869;DHT22;39100;53.480;6.158;2023-03-26T18:34:06;6.80;99.90
52869;DHT22;39100;53.480;6.158;2023-03-26T18:36:35;6.70;99.90
52869;DHT22;39100;53.480;6.158;2023-03-26T18:39:02;6.60;99.90
52869;DHT22;39100;53.480;6.158;2023-03-26T18:41:31;6.70;99.90
52869;DHT22;39100;53.480;6.158;2023-03-26T18:44:03;6.70;99.90
52869;DHT22;39100;53.480;6.158;2023-03-26T18:46:29;6.70;99.90
52869;DHT22;39100;53.480;6.158;2023-03-26T18:48:55;6.70;99.90
52869;DHT22;39100;53.480;6.158;2023-03-26T18:51:24;6.80;99.90
52869;DHT22;39100;53.480;6.158;2023-03-26T18:53:54;6.80;99.90
52869;DHT22;39100;53.480;6.158;2023-03-26T18:58:51;7.10;99.90
52869;DHT22;39100;53.480;6.158;2023-03-26T19:01:19;7.00;99.90
52869;DHT22;39100;53.480;6.158;2023-03-26T19:03:45;7.00;99.90
52869;DHT22;39100;53.480;6.158;2023-03-26T19:06:11;6.80;99.90
52869;DHT22;39100;53.480;6.158;2023-03-26T19:08:38;6.70;99.90
52869;DHT22;39100;53.480;6.158;2023-03-26T19:11:07;6.70;99.90
52869;DHT22;39100;53.480;6.158;2023-03-26T19:13:33;6.80;99.90
52869;DHT22;39100;53.480;6.158;2023-03-26T19:15:59;6.90;99.90
52869;DHT22;39100;53.480;6.158;2023-03-26T19:18:26;6.90;99.90
52869;DHT22;39100;53.480;6.158;2023-03-26T19:23:18;6.90;99.90
52869;DHT22;39100;53.480;6.158;2023-03-26T19:25:45;6.90;99.90
52869;DHT22;39100;53.480;6.158;2023-03-26T19:28:23;6.70;99.90
52869;DHT22;39100;53.480;6.158;2023-03-26T19:33:53;6.70;99.90
52869;DHT22;39100;53.480;6.158;2023-03-26T19:36:19;6.60;99.90
52869;DHT22;39100;53.480;6.158;2023-03-26T19:38:51;6.60;99.90
52869;DHT22;39100;53.480;6.158;2023-03-26T19:41:21;6.60;99.90
52869;DHT22;39100;53.480;6.158;2023-03-26T19:43:51;6.50;99.90
52869;DHT22;39100;53.480;6.158;2023-03-26T19:46:18;6.50;99.90
52869;DHT22;39100;53.480;6.158;2023-03-26T19:48:45;6.60;99.90
52869;DHT22;39100;53.480;6.158;2023-03-26T19:51:18;6.60;99.90
52869;DHT22;39100;53.480;6.158;2023-03-26T19:53:45;6.80;99.90
52869;DHT22;39100;53.480;6.158;2023-03-26T19:56:15;6.70;99.90
52869;DHT22;39100;53.480;6.158;2023-03-26T19:58:42;6.60;99.90
52869;DHT22;39100;53.480;6.158;2023-03-26T20:01:29;6.50;99.90
52869;DHT22;39100;53.480;6.158;2023-03-26T20:03:54;6.50;99.90
52869;DHT22;39100;53.480;6.158;2023-03-26T20:06:21;6.30;99.90
52869;DHT22;39100;53.480;6.158;2023-03-26T20:08:47;6.30;99.90
52869;DHT22;39100;53.480;6.158;2023-03-26T20:11:18;6.30;99.90
52869;DHT22;39100;53.480;6.158;2023-03-26T20:13:44;6.40;99.90
52869;DHT22;39100;53.480;6.158;2023-03-26T20:16:14;6.40;99.90
52869;DHT22;39100;53.480;6.158;2023-03-26T20:18:40;6.30;99.90
52869;DHT22;39100;53.480;6.158;2023-03-26T20:21:10;7.50;99.90
52869;DHT22;39100;53.480;6.158;2023-03-26T20:23:35;6.20;99.90
52869;DHT22;39100;53.480;6.158;2023-03-26T20:26:01;6.20;99.90
52869;DHT22;39100;53.480;6.158;2023-03-26T20:28:26;6.10;99.90
52869;DHT22;39100;53.480;6.158;2023-03-26T20:30:52;6.10;99.90
52869;DHT22;39100;53.480;6.158;2023-03-26T20:33:22;6.00;99.90
52869;DHT22;39100;53.480;6.158;2023-03-26T20:35:58;6.10;99.90
52869;DHT22;39100;53.480;6.158;2023-03-26T20:38:24;6.10;99.90
52869;DHT22;39100;53.480;6.158;2023-03-26T20:40:51;6.00;99.90
52869;DHT22;39100;53.480;6.158;2023-03-26T20:43:17;6.00;99.90
52869;DHT22;39100;53.480;6.158;2023-03-26T20:45:43;6.10;99.90
52869;DHT22;39100;53.480;6.158;2023-03-26T20:48:09;5.90;99.90